Terminal Aerodrome Forecast
Issued by NWS Sterling, VA

Current Version | Previous Version | Graphics & Text | Print | Product List | Glossary On
Versions: 1 2 3 4 5 6 7 8 9 10 11 12 13 14 15
000
FTUS41 KLWX 182300
TAFMRB
TAF
KMRB 182332Z 1900/1924 27010G18KT P6SM SKC
     FM190300 27009KT P6SM SKC
     FM191000 26005KT P6SM SKC
     FM191700 22007KT P6SM BKN090
     FM192000 18012KT P6SM BKN100=

USA.gov is the U.S. government's official web portal to all federal, state and local government web resources and services.